Golden, British Columbia

11:04 AM MDT on July 02, 2015 (GMT -0600)
Golden | | Change Station
CLOSE
Current Station
Airport
Location: Golden,
Elevation: 2575 ft
Nearby Weather Stations

Elev 2575 ft 51.30 °N, 116.98 °W | Updated 4 minutes ago

Partly Cloudy
Partly Cloudy
73 °F
Feels Like 73 °F
N
6
Wind Variable Wind from NW

Today is forecast to be nearly the same temperature as yesterday.

Today
High -- | Low -- °F
--% Chance of Precip.
Yesterday
High -- | Low -- °F
Precip. -- in
5:36 AM 10:06 PM
Full, 100% visible
Pressure 30.10 in
Visibility 20.0 miles
Clouds Few 8000 ft
Few 12000 ft
Dew Point 52 °F
Humidity 47%
Rainfall 0.00 in
Snow Depth Not available.
UV 6 out of 12
Pollen Not available.
Air Quality Not available.
Flu Activity Not available.
METAR CYGE 021700Z 31005KT 20SM FEW080 FEW120 23/11 A3012 RMK CU1AC1 SLP191 DENSITY ALT 3800FT

More Conditions Fewer Conditions

Pressure 30.10 in
Visibility 20.0 miles
Clouds Few 8000 ft
Few 12000 ft
Dew Point 52 °F
Humidity 47%
Rainfall 0.00 in
Snow Depth Not available.
UV 6 out of 12
Pollen Not available.
Air Quality Not available.
Flu Activity Not available.
METAR CYGE 021700Z 31005KT 20SM FEW080 FEW120 23/11 A3012 RMK CU1AC1 SLP191 DENSITY ALT 3800FT

More Conditions Fewer Conditions

10-Day Weather Forecast

×

Almanac

Astronomy

Jul. 02, 2015 Rise Set
Actual Time
Civil Twilight
Nautical Twilight
Astronomical Twilight
Moon
Length of Visible Light
Length of Day
Tomorrow will be .
, % of the Moon is Illuminated

Today's Extremes

Country Highs Country Lows

Community

WunderPhotos

Upload Photos

1,834,501 photos uploaded!

WunderBlogs® & News

Nearby

Air Quality

  Air Quality AQ Index Pollutant
Not available.

Snow Depth

Station Depth Elevation

Earthquake Activity

City Distance Mag. Time & Date
Minimum magnitude displayed is 2.5.

Coastal Water Temperatures

Place Temperature

Stations

Nearby Weather Stations

Station Location Temp. Windchill Dew Point Humidity Wind Precip. Elev Updated Type